Time;durP1;ratioP1;P1;durP2;ratioP2;P2;SDS_P1;SDS_P2;PMS_P1;PMS_P2;Temp;Humidity;BMP_temperature;BMP_pressure;BME280_temperature;BME280_humidity;BME280_pressure;Samples;Min_cycle;Max_cycle;Signal;HPM_P1;HPM_P2
2024/02/29 00:00:55;;;;;;;26.00;17.07;;;2.80;99.90;;;-141.84;87.33;36937.38;5068224;28;20276;-61
2024/02/29 00:03:26;;;;;;;25.60;17.33;;;2.80;99.90;;;-141.84;86.59;32907.91;5069149;28;20760;-60
2024/02/29 00:05:56;;;;;;;27.27;17.83;;;2.80;99.90;;;-141.84;86.04;29774.94;5061612;28;20232;-60
2024/02/29 00:08:26;;;;;;;25.07;16.67;;;2.80;99.90;;;-141.84;86.01;29724.00;5068899;28;20790;-60
2024/02/29 00:10:56;;;;;;;27.50;16.63;;;2.80;99.90;;;-141.84;85.72;30176.38;5069129;28;20303;-60
2024/02/29 00:13:24;;;;;;;27.50;17.37;;;2.90;99.90;;;-141.84;84.02;23333.44;5068471;28;20640;-61
2024/02/29 00:15:53;;;;;;;27.10;16.77;;;2.90;99.90;;;-141.84;83.08;20964.31;5068980;28;20221;-61
2024/02/29 00:18:21;;;;;;;24.80;16.87;;;2.90;99.90;;;-141.84;83.29;21145.25;5071205;28;20234;-60
2024/02/29 00:20:49;;;;;;;25.90;16.27;;;3.00;99.90;;;-141.84;85.49;25866.84;5073072;28;20188;-60
2024/02/29 00:23:19;;;;;;;25.03;17.20;;;2.90;99.90;;;-141.84;87.54;37535.50;5073423;28;20232;-61
2024/02/29 00:25:48;;;;;;;26.53;17.80;;;2.80;99.90;;;-141.84;88.56;44180.38;5073110;28;20252;-59
2024/02/29 00:28:16;;;;;;;26.43;17.07;;;2.70;99.90;;;-141.84;89.00;47846.78;5072678;28;20213;-60
2024/02/29 00:30:45;;;;;;;24.60;17.53;;;2.70;99.90;;;-141.84;89.26;49681.28;5072477;28;20217;-60
2024/02/29 00:33:14;;;;;;;27.77;17.43;;;2.70;99.90;;;-141.84;89.82;52303.44;5072695;28;20220;-59
2024/02/29 00:35:43;;;;;;;26.93;17.20;;;2.60;99.90;;;-141.84;89.96;53090.44;5072684;28;20665;-60
2024/02/29 00:38:16;;;;;;;24.83;16.00;;;2.60;99.90;;;-141.84;90.80;57027.72;5073079;28;20571;-60
2024/02/29 00:40:46;;;;;;;25.47;16.33;;;2.60;99.90;;;-141.84;91.10;58866.47;5073656;28;20305;-60
2024/02/29 00:43:15;;;;;;;25.77;17.93;;;2.60;99.90;;;-141.84;91.49;60968.94;5072541;28;20274;-60
2024/02/29 00:45:43;;;;;;;25.47;16.50;;;2.50;99.90;;;-141.84;92.13;63598.59;5072183;28;20587;-61
2024/02/29 00:48:12;;;;;;;25.17;16.43;;;2.50;99.90;;;-141.84;92.48;65440.38;5072169;28;20713;-61
2024/02/29 00:50:40;;;;;;;26.17;17.27;;;2.50;99.90;;;-141.84;92.61;66229.97;5072275;28;20235;-60
2024/02/29 00:53:11;;;;;;;23.80;16.47;;;2.50;99.90;;;-141.84;93.05;68072.97;5065528;28;20736;-61
2024/02/29 00:55:39;;;;;;;28.03;17.10;;;2.50;99.90;;;-141.84;93.76;70180.31;5073276;28;20305;-59
2024/02/29 00:58:10;;;;;;;24.30;15.97;;;2.50;99.90;;;-141.84;94.51;73343.38;5071696;28;20231;-61
2024/02/29 01:00:38;;;;;;;24.57;15.90;;;2.50;99.90;;;-141.84;95.09;75717.34;5072220;28;20226;-60
2024/02/29 01:03:07;;;;;;;26.33;16.60;;;2.50;99.90;;;-141.84;95.01;75189.69;5072285;28;20255;-61
2024/02/29 01:05:36;;;;;;;24.60;15.67;;;2.50;99.90;;;-141.84;94.93;75189.69;5071488;28;20192;-60
2024/02/29 01:08:05;;;;;;;26.33;16.67;;;2.50;99.90;;;-141.84;94.99;75981.22;5073046;28;20533;-61
2024/02/29 01:10:33;;;;;;;26.30;16.77;;;2.50;99.90;;;-141.84;95.06;75453.50;5072009;28;20869;-60
2024/02/29 01:13:04;;;;;;;22.13;15.20;;;2.50;99.90;;;-141.84;95.62;77300.78;5071868;28;20220;-60
2024/02/29 01:15:33;;;;;;;25.80;16.80;;;2.50;99.90;;;-141.84;95.87;78092.72;5071946;28;20237;-60
2024/02/29 01:18:05;;;;;;;25.13;15.63;;;2.50;99.90;;;-141.84;96.28;79677.06;5072579;28;20238;-61
2024/02/29 01:20:34;;;;;;;26.47;16.40;;;2.40;99.90;;;-141.84;96.99;81790.53;5072361;28;20215;-62
2024/02/29 01:23:02;;;;;;;23.43;15.70;;;2.40;99.90;;;-141.84;96.66;81790.53;5072989;28;20224;-59
2024/02/29 01:25:31;;;;;;;22.93;15.10;;;2.40;99.90;;;-141.84;95.83;78092.72;5071610;28;20248;-60
2024/02/29 01:27:59;;;;;;;24.40;15.37;;;2.40;99.90;;;-141.84;96.67;80469.50;5071265;28;20245;-60
2024/02/29 01:30:27;;;;;;;20.97;14.50;;;2.30;99.90;;;-141.84;97.17;83112.00;5071080;28;20217;-62
2024/02/29 01:32:57;;;;;;;24.60;15.60;;;2.40;99.90;;;-141.84;95.97;79412.97;5071298;28;20224;-60
2024/02/29 01:35:25;;;;;;;25.47;15.40;;;2.40;99.90;;;-141.84;95.01;76508.97;5072185;28;20201;-59
2024/02/29 01:37:55;;;;;;;24.03;15.57;;;2.60;99.90;;;-141.84;94.13;73607.09;5071577;28;20249;-60
2024/02/29 01:40:23;;;;;;;22.43;14.70;;;2.50;99.90;;;-141.84;92.73;68072.97;5070838;28;20761;-60
2024/02/29 01:42:51;;;;;;;21.60;13.80;;;2.60;99.90;;;-141.84;92.61;66493.19;5071418;28;20276;-61
2024/02/29 01:45:19;;;;;;;22.87;14.70;;;2.60;99.90;;;-141.84;91.92;63598.59;5071038;28;20222;-61
2024/02/29 01:47:49;;;;;;;21.47;13.87;;;2.60;99.90;;;-141.84;92.37;65440.38;5071392;28;20242;-60
2024/02/29 01:50:21;;;;;;;23.30;15.00;;;2.60;99.90;;;-141.84;92.76;66756.44;5072103;28;20193;-60
2024/02/29 01:52:51;;;;;;;21.97;14.40;;;2.60;99.90;;;-141.84;92.12;64914.06;5071098;28;20217;-60
2024/02/29 01:55:19;;;;;;;21.57;14.77;;;2.60;99.90;;;-141.84;92.73;66756.44;5071142;28;20316;-60
2024/02/29 01:57:48;;;;;;;25.33;15.40;;;2.60;99.90;;;-141.84;93.99;71234.38;5070748;28;20229;-60
2024/02/29 02:00:18;;;;;;;23.40;14.37;;;2.50;99.90;;;-141.84;92.88;69916.81;5035680;28;20319;-59
2024/02/29 02:02:46;;;;;;;21.10;14.23;;;2.50;99.90;;;-141.84;92.70;66229.97;5071103;28;20193;-60
2024/02/29 02:05:15;;;;;;;21.37;14.53;;;2.50;99.90;;;-141.84;93.40;70180.31;5071138;28;20196;-60
2024/02/29 02:07:46;;;;;;;23.60;15.07;;;2.50;99.90;;;-141.84;93.05;68599.69;5070151;28;20519;-60
2024/02/29 02:10:14;;;;;;;22.03;14.03;;;2.50;99.90;;;-141.84;93.57;69916.81;5070858;28;20652;-60
2024/02/29 02:12:43;;;;;;;22.93;14.67;;;2.40;99.90;;;-141.84;94.44;74134.56;5070739;28;20235;-60
2024/02/29 02:15:11;;;;;;;22.47;15.27;;;2.40;99.90;;;-141.84;92.36;66756.44;5062756;28;20221;-60
2024/02/29 02:17:40;;;;;;;21.60;15.03;;;2.40;99.90;;;-141.84;92.55;66229.97;5071574;28;20307;-60
2024/02/29 02:20:16;;;;;;;22.97;13.97;;;2.40;99.90;;;-141.84;92.98;67809.63;5070890;28;20220;-60
2024/02/29 02:22:45;;;;;;;20.93;14.20;;;2.40;99.90;;;-141.84;94.63;73607.09;5070603;28;20701;-59
2024/02/29 02:25:14;;;;;;;21.53;14.40;;;2.30;99.90;;;-141.84;94.16;72816.03;5071012;28;20226;-61
2024/02/29 02:27:42;;;;;;;21.93;13.73;;;2.30;99.90;;;-141.84;95.54;75453.50;5070586;28;20723;-60
2024/02/29 02:30:12;;;;;;;22.77;14.97;;;2.30;99.90;;;-141.84;96.15;78884.81;5065643;28;20636;-60
2024/02/29 02:32:40;;;;;;;23.00;15.07;;;2.20;99.90;;;-141.84;96.78;81262.06;5068247;28;20193;-61
2024/02/29 02:35:09;;;;;;;23.87;15.10;;;2.20;99.90;;;-141.84;95.98;79412.97;5071534;28;20237;-62
2024/02/29 02:37:40;;;;;;;23.67;15.17;;;2.30;99.90;;;-141.84;94.87;76245.09;5070675;28;20316;-61
2024/02/29 02:40:10;;;;;;;22.40;14.73;;;2.20;99.90;;;-141.84;92.81;68863.09;5069262;28;20220;-61
2024/02/29 02:42:39;;;;;;;20.27;14.10;;;2.30;99.90;;;-141.84;93.08;67809.63;5070180;28;20738;-59
2024/02/29 02:45:09;;;;;;;24.10;13.90;;;;;;;-141.84;94.08;71234.38;5069976;28;20239;-59
2024/02/29 02:47:37;;;;;;;20.07;13.40;;;2.20;99.90;;;-141.84;95.39;75717.34;5071207;28;20279;-59
2024/02/29 02:50:07;;;;;;;20.30;14.53;;;;;;;-141.84;94.84;75453.50;5070512;28;20193;-59
2024/02/29 02:52:36;;;;;;;21.77;14.37;;;;;;;-141.84;93.81;71497.94;5070136;28;20603;-60
2024/02/29 02:55:07;;;;;;;20.53;14.27;;;;;;;-141.84;94.32;72816.03;5069976;28;20394;-60
2024/02/29 02:57:36;;;;;;;21.27;13.83;;;;;;;-141.84;94.50;75453.50;5070219;28;20221;-61
2024/02/29 03:00:10;;;;;;;22.17;14.70;;;;;;;-141.84;93.03;68599.69;5069981;28;20240;-60
2024/02/29 03:02:40;;;;;;;20.70;13.87;;;;;;;-141.84;93.70;70180.31;5063902;28;20468;-59
2024/02/29 03:05:09;;;;;;;21.03;13.50;;;;;;;-141.84;94.54;73343.38;5070193;28;20207;-60
2024/02/29 03:07:47;;;;;;;22.83;14.87;;;;;;;-141.84;96.03;78092.72;5066049;28;20238;-60
2024/02/29 03:10:19;;;;;;;23.43;14.57;;;2.00;99.90;;;-141.84;96.32;79941.19;5069782;28;20597;-59
2024/02/29 03:12:49;;;;;;;19.27;13.30;;;2.10;99.90;;;-141.84;96.13;80205.34;5069503;28;20228;-60
2024/02/29 03:15:17;;;;;;;20.60;13.60;;;2.10;99.90;;;-141.84;95.57;77828.72;5070293;28;20515;-60
2024/02/29 03:17:45;;;;;;;19.00;13.03;;;2.10;99.90;;;-141.84;95.40;77300.78;5071454;28;20270;-60
2024/02/29 03:20:14;;;;;;;19.83;13.23;;;2.10;99.90;;;-141.84;95.83;77564.72;5069424;28;20208;-61
2024/02/29 03:22:45;;;;;;;20.23;13.70;;;2.10;99.90;;;-141.84;97.60;83376.34;5069516;28;20700;-60
2024/02/29 03:25:14;;;;;;;20.40;13.20;;;2.10;99.90;;;-141.84;98.58;87079.03;5069439;28;20299;-59
2024/02/29 03:27:43;;;;;;;19.23;12.60;;;2.10;99.90;;;-141.84;98.11;85756.25;5069093;28;20759;-61
2024/02/29 03:30:12;;;;;;;19.57;13.33;;;2.20;99.90;;;-141.84;99.31;88666.94;5070201;28;20221;-60
2024/02/29 03:32:40;;;;;;;19.17;13.30;;;2.10;99.90;;;-141.84;100.00;91049.97;5069521;28;20204;-60
2024/02/29 03:35:09;;;;;;;18.20;12.60;;;2.10;99.90;;;-141.84;100.00;93434.41;5061449;28;20192;-61
2024/02/29 03:37:38;;;;;;;19.10;12.50;;;2.00;99.90;;;-141.84;100.00;95024.81;5069104;28;20590;-60
2024/02/29 03:40:09;;;;;;;18.00;12.60;;;2.10;99.90;;;-141.84;99.79;90520.28;5068991;28;20667;-60
2024/02/29 03:42:37;;;;;;;18.83;12.83;;;2.10;99.90;;;-141.84;98.19;87079.03;5069240;28;20311;-61
2024/02/29 03:45:08;;;;;;;21.70;13.43;;;2.20;99.90;;;-141.84;97.23;84433.91;5069772;28;20627;-61
2024/02/29 03:47:37;;;;;;;19.17;12.90;;;2.30;99.90;;;-141.84;98.30;85227.25;5068855;28;20276;-61
2024/02/29 03:50:07;;;;;;;20.20;12.63;;;2.30;99.90;;;-141.84;99.32;89461.13;5069592;28;20698;-61
2024/02/29 03:52:35;;;;;;;19.20;12.83;;;2.20;99.90;;;-141.84;100.00;91579.72;5069035;28;20221;-60
2024/02/29 03:55:04;;;;;;;21.30;13.97;;;2.10;99.90;;;-141.84;99.99;92109.53;5068692;28;20298;-61
2024/02/29 03:57:33;;;;;;;22.33;13.30;;;2.20;99.90;;;-141.84;98.82;88931.63;5069321;28;20766;-61
2024/02/29 04:00:01;;;;;;;18.80;12.13;;;2.20;99.90;;;-141.84;99.88;90255.47;5069582;28;20232;-61
2024/02/29 04:02:30;;;;;;;20.13;13.00;;;2.20;99.90;;;-141.84;100.00;91579.72;5061901;28;20404;-60
2024/02/29 04:04:59;;;;;;;18.30;11.83;;;2.20;99.90;;;-141.84;100.00;92374.47;5066000;28;20224;-61
2024/02/29 04:07:27;;;;;;;19.77;13.07;;;2.20;99.90;;;-141.84;100.00;92904.41;5068752;28;20312;-60
2024/02/29 04:09:55;;;;;;;17.80;12.60;;;2.20;99.90;;;-141.84;100.00;95555.09;5068785;28;20304;-61
2024/02/29 04:12:24;;;;;;;16.33;11.57;;;2.10;99.90;;;-141.84;100.00;97411.59;5069441;28;20229;-61
2024/02/29 04:14:52;;;;;;;16.87;12.30;;;2.10;99.90;;;-141.84;100.00;98738.19;5069258;28;20370;-59
2024/02/29 04:17:20;;;;;;;19.67;12.87;;;2.10;99.90;;;-141.84;100.00;97411.59;5069637;28;20228;-61
2024/02/29 04:19:50;;;;;;;18.53;12.90;;;2.10;99.90;;;-141.84;100.00;97676.88;5068817;28;20278;-60
2024/02/29 04:22:18;;;;;;;22.87;13.70;;;2.10;99.90;;;-141.84;100.00;99534.38;5068429;28;20684;-60
2024/02/29 04:24:46;;;;;;;21.30;12.87;;;2.10;99.90;;;-141.84;100.00;99799.78;5068604;28;20723;-60
2024/02/29 04:27:15;;;;;;;21.50;12.60;;;2.00;99.90;;;-141.84;100.00;100596.16;5069463;28;20235;-60
2024/02/29 04:29:46;;;;;;;18.47;13.00;;;2.00;99.90;;;-141.84;100.00;101923.81;5068207;28;20232;-60
2024/02/29 04:32:15;;;;;;;19.73;12.97;;;2.00;99.90;;;-141.84;100.00;101127.16;5069148;28;20217;-59
2024/02/29 04:34:43;;;;;;;17.63;12.50;;;2.00;99.90;;;-141.84;100.00;98738.19;5068198;28;20577;-59
2024/02/29 04:37:13;;;;;;;18.60;12.50;;;2.10;99.90;;;-141.84;100.00;98472.84;5060401;28;20212;-60
2024/02/29 04:39:41;;;;;;;20.90;13.70;;;2.00;99.90;;;-141.84;100.00;96881.06;5068888;28;20257;-60
2024/02/29 04:42:09;;;;;;;18.47;11.97;;;2.10;99.90;;;-141.84;100.00;96881.06;5069558;28;20227;-60
2024/02/29 04:44:38;;;;;;;18.83;12.47;;;2.00;99.90;;;-141.84;100.00;98207.50;5068987;28;20295;-60
2024/02/29 04:47:06;;;;;;;21.57;13.90;;;2.10;99.90;;;-141.84;100.00;99534.38;5068880;28;20203;-61
2024/02/29 04:49:35;;;;;;;20.10;11.83;;;2.00;99.90;;;-141.84;100.00;100861.66;5068103;28;20216;-61
2024/02/29 04:52:03;;;;;;;18.80;12.33;;;2.00;99.90;;;-141.84;100.00;101658.25;5068428;28;20225;-61
2024/02/29 04:54:33;;;;;;;19.93;12.43;;;2.10;99.90;;;-141.84;100.00;101127.16;5068620;28;20537;-60
2024/02/29 04:57:01;;;;;;;21.43;13.17;;;2.00;99.90;;;-141.84;100.00;102455.00;5069462;28;20635;-61
2024/02/29 04:59:29;;;;;;;18.73;12.63;;;2.00;99.90;;;-141.84;100.00;104846.16;5069804;28;20321;-61
2024/02/29 05:01:57;;;;;;;19.00;13.13;;;2.00;99.90;;;-141.84;100.00;102986.25;5068676;28;20228;-61
2024/02/29 05:04:26;;;;;;;19.47;12.63;;;2.00;99.90;;;-141.84;100.00;101923.81;5070536;28;20224;-61
2024/02/29 05:06:56;;;;;;;20.57;13.27;;;2.10;99.90;;;-141.84;100.00;102986.25;5069509;28;20225;-60
2024/02/29 05:09:24;;;;;;;18.03;12.57;;;2.10;99.90;;;-141.84;100.00;103517.56;5071282;28;20231;-60
2024/02/29 05:11:54;;;;;;;21.00;13.40;;;2.00;99.90;;;-141.84;100.00;105643.53;5063905;28;20630;-60
2024/02/29 05:14:22;;;;;;;18.13;12.50;;;2.00;99.90;;;-141.84;100.00;107770.63;5073205;28;20540;-60
2024/02/29 05:16:51;;;;;;;18.70;12.83;;;2.00;99.90;;;-141.84;100.00;108302.56;5071348;28;20221;-61
2024/02/29 05:19:19;;;;;;;19.87;12.90;;;2.00;99.90;;;-141.84;100.00;108834.56;5071761;28;20316;-59
2024/02/29 05:21:47;;;;;;;20.63;12.83;;;2.00;99.90;;;-141.84;100.00;109632.72;5071927;28;20222;-61
2024/02/29 05:24:16;;;;;;;19.07;12.97;;;2.00;99.90;;;-141.84;100.00;109898.81;5073169;28;20274;-61
2024/02/29 05:26:44;;;;;;;20.47;13.17;;;2.00;99.90;;;-141.84;100.00;110963.31;5071551;28;20291;-61
2024/02/29 05:29:14;;;;;;;19.30;12.97;;;2.00;99.90;;;-141.84;100.00;111761.88;5072092;28;20816;-60
2024/02/29 05:31:49;;;;;;;21.00;13.20;;;2.00;99.90;;;-141.84;100.00;106972.81;5071874;28;20256;-59
2024/02/29 05:34:17;;;;;;;19.87;12.80;;;2.10;99.90;;;-141.84;100.00;104846.16;5071369;28;20252;-62
2024/02/29 05:36:46;;;;;;;20.60;13.47;;;2.10;99.90;;;-141.84;100.00;104846.16;5071414;28;20252;-60
2024/02/29 05:39:14;;;;;;;19.53;13.20;;;2.10;99.90;;;-141.84;100.00;106972.81;5064690;28;20221;-62
2024/02/29 05:41:42;;;;;;;21.93;14.63;;;2.10;99.90;;;-141.84;100.00;108568.56;5071471;28;20213;-60
2024/02/29 05:44:10;;;;;;;23.90;14.93;;;2.10;99.90;;;-141.84;100.00;106175.19;5071985;28;20718;-60
2024/02/29 05:46:40;;;;;;;22.80;14.03;;;2.20;99.90;;;-141.84;100.00;99534.38;5071873;28;20220;-60
2024/02/29 05:49:09;;;;;;;26.53;14.50;;;2.20;99.90;;;-141.84;100.00;97411.59;5071197;28;20255;-60
2024/02/29 05:51:37;;;;;;;22.53;14.37;;;2.30;99.90;;;-141.84;100.00;98207.50;5071214;28;20228;-61
2024/02/29 05:54:05;;;;;;;19.20;13.40;;;2.20;99.90;;;-141.84;100.00;101392.69;5071653;28;20526;-60
2024/02/29 05:56:36;;;;;;;21.07;14.00;;;2.20;99.90;;;-141.84;100.00;103517.56;5071748;28;20201;-62
2024/02/29 05:59:04;;;;;;;20.07;14.13;;;2.20;99.90;;;-141.84;100.00;104580.41;5071716;28;20200;-62
2024/02/29 06:01:33;;;;;;;22.17;14.87;;;2.20;99.90;;;-141.84;100.00;104580.41;5071193;28;20305;-60
2024/02/29 06:04:03;;;;;;;21.03;14.70;;;2.20;99.90;;;-141.84;100.00;99799.78;5070976;28;20220;-60
2024/02/29 06:06:31;;;;;;;23.07;15.00;;;2.30;99.90;;;-141.84;100.00;95555.09;5071330;28;20256;-59
2024/02/29 06:08:59;;;;;;;22.37;14.70;;;2.30;99.90;;;-141.84;100.00;92374.47;5070462;28;20232;-60
2024/02/29 06:11:29;;;;;;;22.93;15.20;;;2.40;99.90;;;-141.84;99.89;92109.53;5072696;28;20230;-60
2024/02/29 06:13:57;;;;;;;20.37;14.30;;;2.40;99.90;;;-141.84;100.00;95820.25;5027785;28;20216;-60
2024/02/29 06:16:27;;;;;;;20.63;14.30;;;2.30;99.90;;;-141.84;100.00;101923.81;5069908;28;20302;-60
2024/02/29 06:18:56;;;;;;;22.17;13.87;;;2.30;99.90;;;-141.84;100.00;105377.72;5070234;28;20224;-60
2024/02/29 06:21:26;;;;;;;22.57;14.87;;;2.30;99.90;;;-141.84;100.00;106175.19;5070494;28;20232;-60
2024/02/29 06:23:54;;;;;;;23.77;14.53;;;2.30;99.90;;;-141.84;100.00;106441.06;5070973;28;20769;-60
2024/02/29 06:26:23;;;;;;;24.70;15.57;;;2.30;99.90;;;-141.84;100.00;102189.38;5071102;28;20288;-59
2024/02/29 06:28:52;;;;;;;23.47;14.57;;;2.50;99.90;;;-141.84;100.00;94494.59;5070647;28;20311;-62
2024/02/29 06:31:20;;;;;;;23.17;15.10;;;2.60;99.90;;;-141.84;98.85;89725.88;5070714;28;20293;-62
2024/02/29 06:33:49;;;;;;;23.23;14.77;;;2.70;99.90;;;-141.84;98.59;88137.56;5070138;28;20667;-60
2024/02/29 06:36:17;;;;;;;22.00;14.83;;;2.70;99.90;;;-141.84;98.85;89990.66;5070459;28;20273;-61
2024/02/29 06:38:47;;;;;;;24.53;15.03;;;2.80;99.90;;;-141.84;96.55;83112.00;5070663;28;20302;-62
2024/02/29 06:41:15;;;;;;;23.10;15.60;;;2.90;99.90;;;-141.84;97.99;87079.03;5063082;28;20313;-63
2024/02/29 06:43:43;;;;;;;25.43;15.13;;;2.90;99.90;;;-141.84;98.04;88137.56;5070836;28;20232;-60
2024/02/29 06:46:11;;;;;;;24.70;15.07;;;3.00;99.90;;;-141.84;96.76;84433.91;5070165;28;20252;-60
2024/02/29 06:48:40;;;;;;;26.03;16.13;;;3.00;99.90;;;-141.84;92.69;71761.53;5069722;28;20295;-61
2024/02/29 06:51:08;;;;;;;25.43;16.00;;;3.20;99.90;;;-141.84;90.94;61231.81;5069730;28;20220;-60
2024/02/29 06:53:36;;;;;;;21.73;15.90;;;3.30;99.90;;;-141.84;92.44;68072.97;5069970;28;20547;-61
2024/02/29 06:56:08;;;;;;;24.33;15.53;;;3.40;99.90;;;-141.84;93.73;73343.38;5071251;28;20227;-60
2024/02/29 06:58:36;;;;;;;23.20;15.73;;;3.50;99.90;;;-141.84;89.23;55452.34;5060126;28;20222;-60
2024/02/29 07:01:06;;;;;;;22.63;15.57;;;3.60;99.90;;;-141.84;86.77;42348.44;5069167;28;20230;-60
2024/02/29 07:03:34;;;;;;;24.50;15.93;;;3.60;99.90;;;-141.84;84.30;25797.63;5065639;28;20310;-60
2024/02/29 07:06:04;;;;;;;22.97;15.17;;;3.80;99.90;;;-141.84;83.68;22652.03;5069873;28;20234;-60
2024/02/29 07:08:35;;;;;;;23.63;16.17;;;3.90;99.90;;;-141.84;82.25;20531.31;5071484;28;20216;-60
2024/02/29 07:11:03;;;;;;;24.27;15.70;;;4.00;99.90;;;-141.84;83.30;22058.22;5070513;28;20727;-60
2024/02/29 07:13:33;;;;;;;22.33;14.73;;;4.00;99.90;;;-141.84;81.76;19777.25;5070986;28;20235;-61
2024/02/29 07:16:02;;;;;;;25.57;15.80;;;4.20;99.90;;;-141.84;82.79;21675.94;5067334;28;20228;-61
2024/02/29 07:18:31;;;;;;;23.73;15.20;;;4.20;99.90;;;-141.84;79.79;18824.22;5065304;28;20223;-61
2024/02/29 07:20:59;;;;;;;25.23;16.60;;;4.30;99.90;;;-141.84;78.28;18428.03;5069769;28;20280;-62
2024/02/29 07:23:27;;;;;;;21.57;14.43;;;4.40;99.90;;;-141.84;79.34;18639.31;5070444;28;20544;-60
2024/02/29 07:25:55;;;;;;;20.97;15.40;;;4.40;99.90;;;-141.84;79.63;18775.44;5069707;28;20714;-61
2024/02/29 07:28:24;;;;;;;21.73;14.90;;;4.50;99.90;;;-141.84;80.23;19025.38;5070385;28;20275;-61
2024/02/29 07:30:54;;;;;;;21.17;14.13;;;4.60;99.90;;;-141.84;77.39;18369.09;5070857;28;20266;-61
2024/02/29 07:33:23;;;;;;;20.83;14.27;;;4.70;99.90;;;-141.84;75.45;18208.59;5070984;28;20238;-60
2024/02/29 07:35:52;;;;;;;20.70;13.67;;;4.80;99.90;;;-141.84;75.58;18198.44;5070150;28;20197;-60
2024/02/29 07:38:20;;;;;;;21.20;15.03;;;4.80;99.90;;;-141.84;75.90;18298.00;5071193;28;20207;-61
2024/02/29 07:40:49;;;;;;;21.27;14.30;;;4.90;99.90;;;-141.84;74.98;18245.19;5069775;28;20227;-62
2024/02/29 07:43:17;;;;;;;18.77;13.67;;;4.90;99.90;;;-141.84;75.81;18275.66;5069674;28;20247;-60
2024/02/29 07:45:45;;;;;;;21.20;14.23;;;5.00;99.90;;;-141.84;73.78;18163.91;5069359;28;20219;-61
2024/02/29 07:48:15;;;;;;;20.07;14.03;;;5.10;99.90;;;-141.84;74.13;18228.91;5072256;28;20281;-61
2024/02/29 07:50:43;;;;;;;21.30;15.03;;;5.10;99.90;;;-141.84;73.28;18265.50;5070353;28;20192;-61
2024/02/29 07:53:12;;;;;;;20.27;13.77;;;5.20;99.90;;;-141.84;73.11;18212.66;5071066;28;20200;-59
2024/02/29 07:55:40;;;;;;;18.73;12.73;;;5.30;99.90;;;-141.84;72.99;18218.75;5069513;28;20257;-61
2024/02/29 07:58:09;;;;;;;21.70;13.73;;;5.40;99.90;;;-141.84;70.13;18261.44;5069902;28;20266;-60
2024/02/29 08:00:38;;;;;;;20.73;13.70;;;5.60;99.90;;;-141.84;69.24;18228.91;5068214;28;20262;-61
2024/02/29 08:03:06;;;;;;;18.63;14.03;;;5.70;99.90;;;-141.84;69.59;18251.28;5068360;28;20725;-59
2024/02/29 08:05:38;;;;;;;19.43;14.17;;;5.80;99.90;;;-141.84;69.52;18247.22;5068999;28;20250;-61
2024/02/29 08:08:07;;;;;;;18.50;13.00;;;5.80;99.90;;;-141.84;68.68;18245.19;5069578;28;20228;-59
2024/02/29 08:10:36;;;;;;;18.33;12.70;;;6.00;99.90;;;-141.84;67.52;18237.06;5068997;28;20224;-60
2024/02/29 08:13:04;;;;;;;16.97;13.13;;;6.10;99.90;;;-141.84;67.40;18298.00;5069205;28;20220;-60
2024/02/29 08:15:33;;;;;;;18.73;13.00;;;6.20;99.90;;;-141.84;67.14;18273.63;5068802;28;20228;-59
2024/02/29 08:18:02;;;;;;;17.70;13.37;;;6.20;99.90;;;-141.84;66.77;18300.03;5060978;28;20224;-60
2024/02/29 08:20:30;;;;;;;17.83;12.53;;;6.30;99.90;;;-141.84;66.21;18289.88;5069214;28;20354;-59
2024/02/29 08:23:00;;;;;;;17.90;13.03;;;6.40;99.90;;;-141.84;65.47;18342.69;5070035;28;20229;-59
2024/02/29 08:25:33;;;;;;;17.03;12.67;;;6.40;99.90;;;-141.84;64.29;18295.97;5071575;28;20244;-59
2024/02/29 08:28:01;;;;;;;16.67;12.80;;;6.60;99.90;;;-141.84;64.94;18326.44;5070051;28;20247;-60
2024/02/29 08:30:33;;;;;;;17.13;13.87;;;6.60;99.90;;;-141.84;64.08;18334.56;5073000;28;20224;-58
2024/02/29 08:33:01;;;;;;;17.50;12.87;;;6.70;99.90;;;-141.84;63.47;18338.63;5073328;28;20312;-59
2024/02/29 08:35:33;;;;;;;18.47;14.17;;;6.80;99.90;;;-141.84;64.10;18346.75;5073899;28;20197;-60
2024/02/29 08:38:03;;;;;;;16.47;13.03;;;6.80;99.90;;;-141.84;63.45;18330.50;5065653;28;20240;-60
2024/02/29 08:40:33;;;;;;;17.43;12.73;;;6.90;99.90;;;-141.84;62.76;18365.03;5077051;28;20668;-60
2024/02/29 08:43:01;;;;;;;17.47;13.00;;;7.00;99.90;;;-141.84;62.81;18367.06;5076964;28;20301;-60
2024/02/29 08:45:33;;;;;;;16.30;12.57;;;7.10;99.90;;;-141.84;61.25;18350.81;5076725;28;20250;-60
2024/02/29 08:48:01;;;;;;;15.87;12.83;;;7.20;99.90;;;-141.84;61.32;18375.19;5041676;28;20224;-60
2024/02/29 08:50:33;;;;;;;17.00;12.47;;;7.30;99.90;;;-141.84;61.07;18425.97;5077204;28;20618;-60
2024/02/29 08:53:03;;;;;;;18.70;13.50;;;7.40;99.90;;;-141.84;60.10;18421.91;5076897;28;20204;-60
2024/02/29 08:55:33;;;;;;;18.07;12.97;;;7.50;99.90;;;-141.84;60.18;18407.69;5076827;28;20292;-59
2024/02/29 08:58:02;;;;;;;15.40;12.40;;;7.60;99.90;;;-141.84;59.36;18432.09;5068711;28;20308;-59
2024/02/29 09:00:33;;;;;;;16.70;12.80;;;7.70;99.90;;;-141.84;59.61;18428.03;5076533;28;20785;-59
2024/02/29 09:03:01;;;;;;;17.93;13.30;;;7.70;99.90;;;-141.84;59.26;18430.06;5075289;28;20256;-60
2024/02/29 09:05:33;;;;;;;14.70;12.40;;;7.70;99.90;;;-141.84;58.01;18448.34;5076875;28;20240;-59
2024/02/29 09:08:03;;;;;;;14.70;12.97;;;7.90;99.90;;;-141.84;57.75;18493.03;5076145;28;20234;-60
2024/02/29 09:10:33;;;;;;;16.53;12.93;;;7.90;99.90;;;-141.84;57.13;18476.78;5076007;28;20232;-59
2024/02/29 09:13:03;;;;;;;14.83;12.43;;;8.00;99.90;;;-141.84;56.68;18484.91;5075711;28;20255;-59
2024/02/29 09:15:49;;;;;;;14.97;13.00;;;8.00;99.90;;;-141.84;58.16;18423.94;5075593;28;20232;-60
2024/02/29 09:18:20;;;;;;;18.37;13.20;;;8.10;99.90;;;-141.84;57.05;18486.94;5040718;28;20751;-58
2024/02/29 09:20:53;;;;;;;13.30;11.90;;;8.10;99.90;;;-141.84;56.98;18497.09;5076014;28;20232;-59
2024/02/29 09:23:22;;;;;;;16.77;13.43;;;8.20;99.90;;;-141.84;55.92;18511.31;5076541;28;20209;-58
2024/02/29 09:25:53;;;;;;;17.17;13.40;;;8.30;99.90;;;-141.84;56.30;18468.66;5076132;28;20289;-60
2024/02/29 09:28:22;;;;;;;15.37;12.80;;;8.40;99.90;;;-141.84;56.75;18484.91;5074876;28;20305;-60
2024/02/29 09:30:54;;;;;;;17.27;14.07;;;8.20;99.90;;;-141.84;57.47;18495.06;5076438;28;20217;-60
2024/02/29 09:33:24;;;;;;;17.70;13.23;;;8.10;99.90;;;-141.84;57.06;18515.38;5075561;28;20232;-60
2024/02/29 09:35:57;;;;;;;17.67;13.40;;;8.20;99.90;;;-141.84;56.58;18517.41;5076616;28;20209;-59
2024/02/29 09:38:29;;;;;;;17.33;13.20;;;8.20;99.90;;;-141.84;56.49;18501.16;5076534;28;20439;-60
2024/02/29 09:41:00;;;;;;;17.30;13.37;;;8.30;99.90;;;-141.84;56.52;18486.94;5075940;28;20213;-59
2024/02/29 09:43:51;;;;;;;17.23;14.33;;;8.40;99.90;;;-141.84;55.61;18521.47;5075741;28;20726;-60
2024/02/29 09:46:22;;;;;;;16.00;12.67;;;8.50;99.90;;;-141.84;55.83;18493.03;5075551;28;20223;-61
2024/02/29 09:48:53;;;;;;;18.10;13.03;;;8.50;99.90;;;-141.84;55.62;18517.41;5075864;28;20217;-59
2024/02/29 09:51:22;;;;;;;17.80;14.03;;;8.60;99.90;;;-141.84;55.39;18497.09;5075530;28;20747;-60
2024/02/29 09:53:56;;;;;;;16.93;13.60;;;8.60;99.90;;;-141.84;55.45;18553.97;5075981;28;20185;-59
2024/02/29 09:56:32;;;;;;;19.80;15.00;;;8.70;99.90;;;-141.84;55.29;18501.16;5076206;28;20213;-60
2024/02/29 09:59:03;;;;;;;17.47;13.27;;;8.70;99.90;;;-141.84;55.90;18590.56;5067991;28;20630;-60
2024/02/29 10:01:33;;;;;;;19.37;14.77;;;8.70;99.90;;;-141.84;54.37;18558.03;5075888;28;20258;-59
2024/02/29 10:04:03;;;;;;;17.13;13.33;;;8.90;99.90;;;-141.84;54.03;18545.84;5074889;28;20220;-58
2024/02/29 10:06:33;;;;;;;17.10;14.07;;;9.00;99.90;;;-141.84;53.18;18572.25;5075776;28;20320;-58
2024/02/29 10:09:04;;;;;;;18.23;14.80;;;9.20;99.90;;;-141.84;53.01;18545.84;5075320;28;20256;-59